createdAt,value
2022-09-07T00:00:43.897Z,40.99
2022-09-07T00:03:37.976Z,41.03
2022-09-07T00:06:28.871Z,40.80
2022-09-07T00:09:19.774Z,40.88
2022-09-07T00:12:12.851Z,40.96
2022-09-07T00:15:08.062Z,40.92
2022-09-07T00:17:58.548Z,40.83
2022-09-07T00:20:56.882Z,40.95
2022-09-07T00:23:48.662Z,41.15
2022-09-07T00:26:38.789Z,40.72
2022-09-07T00:29:28.947Z,40.75
2022-09-07T00:32:20.500Z,40.98
2022-09-07T00:35:13.239Z,40.89
2022-09-07T00:38:03.381Z,40.92
2022-09-07T00:40:55.407Z,40.91
2022-09-07T00:43:48.480Z,40.92
2022-09-07T00:46:39.638Z,40.71
2022-09-07T00:49:30.619Z,40.87
2022-09-07T00:52:21.764Z,41.06
2022-09-07T00:55:15.647Z,40.87
2022-09-07T00:58:07.478Z,40.73
2022-09-07T01:00:59.235Z,40.71
2022-09-07T01:03:51.693Z,40.70
2022-09-07T01:07:01.638Z,40.74
2022-09-07T01:10:11.812Z,40.83
2022-09-07T01:13:10.908Z,40.96
2022-09-07T01:16:09.402Z,40.66
2022-09-07T01:19:18.037Z,40.88
2022-09-07T01:22:21.411Z,40.80
2022-09-07T01:25:18.978Z,40.85
2022-09-07T01:28:14.786Z,40.72
2022-09-07T01:31:10.240Z,40.78
2022-09-07T01:34:04.546Z,40.88
2022-09-07T01:36:59.149Z,40.91
2022-09-07T01:39:53.774Z,40.97
2022-09-07T01:42:49.154Z,40.83
2022-09-07T01:45:41.295Z,40.86
2022-09-07T01:48:31.927Z,40.79
2022-09-07T01:51:24.184Z,40.98
2022-09-07T01:54:18.634Z,40.99
2022-09-07T01:57:13.049Z,40.81
2022-09-07T02:00:09.634Z,40.79
2022-09-07T02:03:07.107Z,40.95
2022-09-07T02:06:01.759Z,40.90
2022-09-07T02:08:57.445Z,41.01
2022-09-07T02:11:50.295Z,41.01
2022-09-07T02:14:42.303Z,40.98
2022-09-07T02:17:37.198Z,40.87
2022-09-07T02:20:32.628Z,40.85
2022-09-07T02:23:27.472Z,40.98
2022-09-07T02:26:20.966Z,41.14
2022-09-07T02:29:12.250Z,40.95
2022-09-07T02:32:04.073Z,40.91
2022-09-07T02:34:54.993Z,40.87
2022-09-07T02:37:46.360Z,40.88
2022-09-07T02:40:38.134Z,40.88
2022-09-07T02:43:28.944Z,40.71
2022-09-07T02:46:23.456Z,41.06
2022-09-07T02:49:27.410Z,40.68
2022-09-07T02:52:24.300Z,40.92
2022-09-07T02:55:22.195Z,41.17
2022-09-07T02:58:22.997Z,40.91
2022-09-07T03:01:20.221Z,40.82
2022-09-07T03:04:15.439Z,41.12
2022-09-07T03:07:09.516Z,41.01
2022-09-07T03:10:03.025Z,40.78
2022-09-07T03:12:55.008Z,41.12
2022-09-07T03:15:45.608Z,41.04
2022-09-07T03:18:37.057Z,41.01
2022-09-07T03:21:29.428Z,40.94
2022-09-07T03:24:21.202Z,40.84
2022-09-07T03:27:12.955Z,40.95
2022-09-07T03:30:06.881Z,40.92
2022-09-07T03:32:57.951Z,40.91
2022-09-07T03:35:59.908Z,41.17
2022-09-07T03:38:53.360Z,41.08
2022-09-07T03:41:48.372Z,41.09
2022-09-07T03:44:41.563Z,41.09
2022-09-07T03:47:36.177Z,40.94
2022-09-07T03:50:30.909Z,40.78
2022-09-07T03:53:24.207Z,40.95
2022-09-07T03:56:17.894Z,40.98
2022-09-07T03:59:12.372Z,41.13
2022-09-07T04:02:07.140Z,40.83
2022-09-07T04:05:04.370Z,40.97
2022-09-07T04:08:04.751Z,41.08
2022-09-07T04:11:00.082Z,40.86
2022-09-07T04:13:53.180Z,41.01
2022-09-07T04:16:48.222Z,40.81
2022-09-07T04:19:40.861Z,41.02
2022-09-07T04:22:38.429Z,41.05
2022-09-07T04:25:34.829Z,40.95
2022-09-07T04:28:28.651Z,40.75
2022-09-07T04:31:23.900Z,40.90
2022-09-07T04:34:17.658Z,40.68
2022-09-07T04:37:16.307Z,40.98
2022-09-07T04:40:15.963Z,40.89
2022-09-07T04:43:13.240Z,40.92
2022-09-07T04:46:24.301Z,40.93
2022-09-07T04:49:21.540Z,40.96
2022-09-07T04:52:16.105Z,40.92
2022-09-07T04:55:13.434Z,41.09
2022-09-07T04:58:13.249Z,41.01
2022-09-07T05:01:10.621Z,40.91
2022-09-07T05:04:07.045Z,40.88
2022-09-07T05:07:08.155Z,40.92
2022-09-07T05:10:12.305Z,40.74
2022-09-07T05:13:10.725Z,40.77
2022-09-07T05:16:13.397Z,41.06
2022-09-07T05:19:13.710Z,40.90
2022-09-07T05:22:12.835Z,40.78
2022-09-07T05:25:13.283Z,40.45
2022-09-07T05:28:18.575Z,40.78
2022-09-07T05:31:35.599Z,40.46
2022-09-07T05:34:59.565Z,40.71
2022-09-07T05:38:08.949Z,40.54
2022-09-07T05:41:15.954Z,40.64
2022-09-07T05:47:44.164Z,40.64
2022-09-07T05:50:41.159Z,40.54
2022-09-07T05:53:40.726Z,40.34
2022-09-07T05:56:43.083Z,40.48
2022-09-07T05:59:40.105Z,40.51
2022-09-07T06:02:40.002Z,40.48
2022-09-07T06:05:37.630Z,40.49
2022-09-07T06:08:34.291Z,40.71
2022-09-07T06:11:43.877Z,40.41
2022-09-07T06:14:43.635Z,40.66
2022-09-07T06:17:41.412Z,40.56
2022-09-07T06:20:36.664Z,40.50
2022-09-07T06:23:39.729Z,40.47
2022-09-07T06:26:36.399Z,40.52
2022-09-07T06:29:37.605Z,40.62
2022-09-07T06:35:51.608Z,40.67
2022-09-07T06:38:55.454Z,40.47
2022-09-07T06:44:59.328Z,39.51
2022-09-07T06:48:03.623Z,39.33
2022-09-07T06:51:05.174Z,38.65
2022-09-07T06:57:31.313Z,37.92
2022-09-07T07:00:36.655Z,38.27
2022-09-07T07:03:45.732Z,37.56
2022-09-07T07:06:47.754Z,37.87
2022-09-07T07:09:49.668Z,37.62
2022-09-07T07:12:45.967Z,37.46
2022-09-07T07:15:45.162Z,37.75
2022-09-07T07:18:52.626Z,37.54
2022-09-07T07:22:23.415Z,37.68
2022-09-07T07:25:22.605Z,37.73
2022-09-07T07:29:04.344Z,37.74
2022-09-07T07:32:09.928Z,37.78
2022-09-07T07:35:18.606Z,37.86
2022-09-07T07:41:55.262Z,37.76
2022-09-07T07:48:33.350Z,37.61
2022-09-07T07:55:42.493Z,37.63
2022-09-07T07:58:22.885Z,37.76
2022-09-07T08:01:31.358Z,37.92
2022-09-07T08:04:27.661Z,37.52
2022-09-07T08:07:32.710Z,37.92
2022-09-07T08:10:35.044Z,37.78
2022-09-07T08:13:35.467Z,37.57
2022-09-07T08:16:41.523Z,37.23
2022-09-07T08:19:41.068Z,37.39
2022-09-07T08:22:48.671Z,37.32
2022-09-07T08:25:53.058Z,36.21
2022-09-07T08:28:53.368Z,36.04
2022-09-07T08:31:55.659Z,35.49
2022-09-07T08:34:59.582Z,35.26
2022-09-07T08:37:54.994Z,35.02
2022-09-07T08:40:55.704Z,34.66
2022-09-07T08:43:54.655Z,33.40
2022-09-07T08:47:05.599Z,33.69
2022-09-07T08:50:07.338Z,33.21
2022-09-07T08:53:14.320Z,33.36
2022-09-07T08:56:15.488Z,33.39
2022-09-07T08:59:42.664Z,33.66
2022-09-07T09:06:09.671Z,32.96
2022-09-07T09:09:16.726Z,33.56
2022-09-07T09:12:25.823Z,33.01
2022-09-07T09:15:24.536Z,32.65
2022-09-07T09:18:48.684Z,32.95
2022-09-07T09:21:51.485Z,33.06
2022-09-07T09:25:04.768Z,32.73
2022-09-07T09:28:07.080Z,32.48
2022-09-07T09:31:09.553Z,32.93
2022-09-07T09:34:13.469Z,32.84
2022-09-07T09:37:11.695Z,32.94
2022-09-07T09:40:27.709Z,32.68
2022-09-07T09:43:36.721Z,33.08
2022-09-07T09:46:36.493Z,32.48
2022-09-07T09:49:44.685Z,32.38
2022-09-07T09:52:49.327Z,32.61
2022-09-07T09:55:49.668Z,32.43
2022-09-07T09:59:56.788Z,32.18
2022-09-07T10:06:01.010Z,31.94
2022-09-07T10:09:06.693Z,31.77
2022-09-07T10:12:22.586Z,31.87
2022-09-07T10:15:40.626Z,32.15
2022-09-07T10:18:43.517Z,32.11
2022-09-07T10:21:40.940Z,31.91
2022-09-07T10:24:46.122Z,32.28
2022-09-07T10:27:42.518Z,32.62
2022-09-07T10:30:51.594Z,32.09
2022-09-07T10:37:12.867Z,31.51
2022-09-07T10:40:26.234Z,31.67
2022-09-07T10:43:48.713Z,31.36
2022-09-07T10:46:57.018Z,31.81
2022-09-07T10:57:24.918Z,31.98
2022-09-07T11:00:21.677Z,32.12
2022-09-07T11:04:00.567Z,31.79
2022-09-07T11:07:06.627Z,31.22
2022-09-07T11:10:15.279Z,31.81
2022-09-07T11:13:22.721Z,32.16
2022-09-07T11:19:53.046Z,32.71
2022-09-07T11:22:51.793Z,32.16
2022-09-07T11:26:07.824Z,32.59
2022-09-07T11:29:29.680Z,32.72
2022-09-07T11:32:28.919Z,32.65
2022-09-07T11:35:35.532Z,33.03
2022-09-07T11:38:46.768Z,32.49
2022-09-07T11:41:52.493Z,32.42
2022-09-07T11:44:50.486Z,32.19
2022-09-07T11:48:00.186Z,32.29
2022-09-07T11:51:07.490Z,32.66
2022-09-07T11:54:42.539Z,32.48
2022-09-07T11:58:00.185Z,31.91
2022-09-07T12:01:09.194Z,31.89
2022-09-07T12:04:40.729Z,31.80
2022-09-07T12:08:01.679Z,31.76
2022-09-07T12:11:23.196Z,31.32
2022-09-07T12:14:37.657Z,31.12
2022-09-07T12:17:56.764Z,31.07
2022-09-07T12:20:58.586Z,30.97
2022-09-07T12:24:06.774Z,30.73
2022-09-07T12:27:17.787Z,31.41
2022-09-07T12:31:01.315Z,31.19
2022-09-07T12:34:50.692Z,31.33
2022-09-07T12:37:53.898Z,31.17
2022-09-07T12:41:08.209Z,30.91
2022-09-07T12:44:24.913Z,31.12
2022-09-07T12:47:38.229Z,30.89
2022-09-07T12:50:51.068Z,32.00
2022-09-07T12:53:57.416Z,31.63
2022-09-07T13:00:25.530Z,31.34
2022-09-07T13:04:09.730Z,31.00
2022-09-07T13:08:18.823Z,30.89
2022-09-07T13:11:44.152Z,30.50
2022-09-07T13:14:59.925Z,30.95
2022-09-07T13:18:13.012Z,31.06
2022-09-07T13:21:41.100Z,30.62
2022-09-07T13:24:57.879Z,30.33
2022-09-07T13:28:02.764Z,30.24
2022-09-07T13:31:14.889Z,30.39
2022-09-07T13:34:55.587Z,30.91
2022-09-07T13:38:08.830Z,30.29
2022-09-07T13:41:25.924Z,30.08
2022-09-07T13:44:30.342Z,30.39
2022-09-07T13:47:39.336Z,30.06
2022-09-07T13:50:48.783Z,30.69
2022-09-07T13:54:09.818Z,29.92
2022-09-07T13:57:30.581Z,29.86
2022-09-07T14:00:35.889Z,30.56
2022-09-07T14:03:54.841Z,29.64
2022-09-07T14:07:09.814Z,29.73
2022-09-07T14:10:23.693Z,29.37
2022-09-07T14:13:25.897Z,28.97
2022-09-07T14:16:34.160Z,29.22
2022-09-07T14:19:48.889Z,29.26
2022-09-07T14:22:58.521Z,29.11
2022-09-07T14:26:18.291Z,29.23
2022-09-07T14:29:27.123Z,29.52
2022-09-07T14:32:28.759Z,29.79
2022-09-07T14:35:41.863Z,30.00
2022-09-07T14:42:16.811Z,29.82
2022-09-07T14:45:37.783Z,29.50
2022-09-07T14:48:45.224Z,29.16
2022-09-07T14:51:52.872Z,29.38
2022-09-07T14:54:55.332Z,29.39
2022-09-07T14:58:28.495Z,29.50
2022-09-07T15:01:39.596Z,29.33
2022-09-07T15:04:38.972Z,29.44
2022-09-07T15:07:44.793Z,29.13
2022-09-07T15:11:32.895Z,29.24
2022-09-07T15:14:22.825Z,29.26
2022-09-07T15:17:43.312Z,29.09
2022-09-07T15:20:46.720Z,29.14
2022-09-07T15:23:45.901Z,29.35
2022-09-07T15:27:04.306Z,30.09
2022-09-07T15:29:59.671Z,30.37
2022-09-07T15:33:06.958Z,31.20
2022-09-07T15:36:17.871Z,31.25
2022-09-07T15:39:33.401Z,31.80
2022-09-07T15:46:03.743Z,32.07
2022-09-07T15:49:12.910Z,31.60
2022-09-07T15:52:18.894Z,31.28
2022-09-07T15:55:17.568Z,31.39
2022-09-07T15:58:26.843Z,31.26
2022-09-07T16:04:44.264Z,31.46
2022-09-07T16:11:26.907Z,31.57
2022-09-07T16:14:35.101Z,31.21
2022-09-07T16:17:47.370Z,31.48
2022-09-07T16:20:55.897Z,31.44
2022-09-07T16:24:05.081Z,31.38
2022-09-07T16:27:18.713Z,31.46
2022-09-07T16:30:24.054Z,31.49
2022-09-07T16:33:36.605Z,31.68
2022-09-07T16:36:31.582Z,31.82
2022-09-07T16:39:39.958Z,31.77
2022-09-07T16:42:48.045Z,31.69
2022-09-07T16:46:04.836Z,31.47
2022-09-07T16:49:10.405Z,31.83
2022-09-07T16:52:31.948Z,31.87
2022-09-07T16:55:34.720Z,31.89
2022-09-07T16:58:38.359Z,32.01
2022-09-07T17:01:47.991Z,31.62
2022-09-07T17:04:54.920Z,31.60
2022-09-07T17:07:53.717Z,31.45
2022-09-07T17:11:08.973Z,31.74
2022-09-07T17:14:29.892Z,31.72
2022-09-07T17:17:38.067Z,31.81
2022-09-07T17:20:43.582Z,31.93
2022-09-07T17:23:56.048Z,32.09
2022-09-07T17:27:08.696Z,32.58
2022-09-07T17:30:15.389Z,32.64
2022-09-07T17:33:26.836Z,32.84
2022-09-07T17:36:40.971Z,32.72
2022-09-07T17:39:41.274Z,33.30
2022-09-07T17:46:22.019Z,33.38
2022-09-07T17:49:29.733Z,33.60
2022-09-07T17:52:32.562Z,33.50
2022-09-07T17:55:38.231Z,33.85
2022-09-07T17:58:54.172Z,34.15
2022-09-07T18:02:17.960Z,34.13
2022-09-07T18:05:22.820Z,34.23
2022-09-07T18:08:25.867Z,34.56
2022-09-07T18:11:46.860Z,34.47
2022-09-07T18:14:52.974Z,34.45
2022-09-07T18:18:05.760Z,34.46
2022-09-07T18:21:20.924Z,34.61
2022-09-07T18:24:36.436Z,34.51
2022-09-07T18:29:03.364Z,34.70
2022-09-07T18:31:19.024Z,34.72
2022-09-07T18:34:37.023Z,34.73
2022-09-07T18:37:33.387Z,34.82
2022-09-07T18:40:40.015Z,34.99
2022-09-07T18:43:47.251Z,34.82
2022-09-07T18:46:49.971Z,35.14
2022-09-07T18:49:57.494Z,34.85
2022-09-07T18:53:16.550Z,35.06
2022-09-07T18:56:21.760Z,35.29
2022-09-07T18:59:42.021Z,34.93
2022-09-07T19:02:43.340Z,35.10
2022-09-07T19:05:56.033Z,35.38
2022-09-07T19:09:00.956Z,35.07
2022-09-07T19:12:11.208Z,35.38
2022-09-07T19:15:15.713Z,35.46
2022-09-07T19:18:29.006Z,35.75
2022-09-07T19:21:33.961Z,36.02
2022-09-07T19:24:30.791Z,35.98
2022-09-07T19:27:27.949Z,36.89
2022-09-07T19:30:39.661Z,37.04
2022-09-07T19:33:53.387Z,37.24
2022-09-07T19:36:51.971Z,37.78
2022-09-07T19:40:00.041Z,37.82
2022-09-07T19:42:58.988Z,38.37
2022-09-07T19:45:53.371Z,38.24
2022-09-07T19:49:12.510Z,38.37
2022-09-07T19:52:25.959Z,38.69
2022-09-07T19:55:34.052Z,38.71
2022-09-07T19:58:41.131Z,38.92
2022-09-07T20:01:42.913Z,38.67
2022-09-07T20:04:46.400Z,39.08
2022-09-07T20:07:48.268Z,39.35
2022-09-07T20:10:47.362Z,39.59
2022-09-07T20:13:55.927Z,39.55
2022-09-07T20:17:02.067Z,39.49
2022-09-07T20:20:07.768Z,39.48
2022-09-07T20:23:19.061Z,39.68
2022-09-07T20:26:22.041Z,39.96
2022-09-07T20:29:33.006Z,39.94
2022-09-07T20:32:37.188Z,40.10
2022-09-07T20:35:36.527Z,40.16
2022-09-07T20:38:48.115Z,40.45
2022-09-07T20:41:53.976Z,40.62
2022-09-07T20:45:11.095Z,40.41
2022-09-07T20:48:08.131Z,40.73
2022-09-07T20:51:16.908Z,40.57
2022-09-07T20:54:23.141Z,40.60
2022-09-07T20:57:29.116Z,40.75
2022-09-07T21:00:26.827Z,40.89
2022-09-07T21:03:27.321Z,41.07
2022-09-07T21:06:30.085Z,41.15
2022-09-07T21:09:37.472Z,41.03
2022-09-07T21:12:44.053Z,41.00
2022-09-07T21:15:48.419Z,40.94
2022-09-07T21:18:50.186Z,41.01
2022-09-07T21:21:49.913Z,40.68
2022-09-07T21:24:44.255Z,41.00
2022-09-07T21:27:43.430Z,40.84
2022-09-07T21:30:40.077Z,40.97
2022-09-07T21:33:45.742Z,40.71
2022-09-07T21:36:46.632Z,40.69
2022-09-07T21:39:52.828Z,40.48
2022-09-07T21:42:58.494Z,40.84
2022-09-07T21:45:56.188Z,40.87
2022-09-07T21:48:50.921Z,40.70
2022-09-07T21:51:51.185Z,40.58
2022-09-07T21:54:51.608Z,40.67
2022-09-07T21:57:52.137Z,40.57
2022-09-07T22:00:45.973Z,40.54
2022-09-07T22:03:44.016Z,40.44
2022-09-07T22:06:41.279Z,40.56
2022-09-07T22:09:42.143Z,40.33
2022-09-07T22:12:36.988Z,40.71
2022-09-07T22:15:38.108Z,40.51
2022-09-07T22:18:38.060Z,40.62
2022-09-07T22:21:41.545Z,40.48
2022-09-07T22:24:41.020Z,40.34
2022-09-07T22:27:35.220Z,40.14
2022-09-07T22:30:29.091Z,40.43
2022-09-07T22:33:22.951Z,40.37
2022-09-07T22:36:22.884Z,40.22
2022-09-07T22:39:20.271Z,40.40
2022-09-07T22:42:16.355Z,40.22
2022-09-07T22:45:15.784Z,40.07
2022-09-07T22:48:11.705Z,40.31
2022-09-07T22:51:06.484Z,40.32
2022-09-07T22:54:01.005Z,40.07
2022-09-07T22:56:55.485Z,40.00
2022-09-07T22:59:49.963Z,40.04
2022-09-07T23:02:44.196Z,40.24
2022-09-07T23:05:42.037Z,40.01
2022-09-07T23:08:34.972Z,40.02
2022-09-07T23:11:33.884Z,40.02
2022-09-07T23:14:28.189Z,40.09
2022-09-07T23:17:22.861Z,40.11
2022-09-07T23:20:17.550Z,40.15
2022-09-07T23:23:13.190Z,40.27
2022-09-07T23:26:07.496Z,40.22
2022-09-07T23:29:05.022Z,39.89
2022-09-07T23:31:59.440Z,40.02
2022-09-07T23:34:54.528Z,39.98
2022-09-07T23:37:49.519Z,40.18
2022-09-07T23:40:44.176Z,40.16
2022-09-07T23:43:38.690Z,40.32
2022-09-07T23:46:31.988Z,40.08
2022-09-07T23:49:25.445Z,40.03
2022-09-07T23:52:18.903Z,39.90
2022-09-07T23:55:14.823Z,39.82
2022-09-07T23:58:09.115Z,40.10
